createdAt,value
2023-09-18T00:00:33.802Z,25.30
2023-09-18T00:03:04.060Z,25.31
2023-09-18T00:05:31.060Z,25.32
2023-09-18T00:07:57.572Z,25.31
2023-09-18T00:10:24.118Z,25.31
2023-09-18T00:12:50.634Z,25.28
2023-09-18T00:15:17.061Z,25.25
2023-09-18T00:17:43.573Z,25.24
2023-09-18T00:20:10.625Z,25.23
2023-09-18T00:22:37.120Z,25.23
2023-09-18T00:25:03.725Z,25.23
2023-09-18T00:27:30.450Z,25.22
2023-09-18T00:29:56.885Z,25.21
2023-09-18T00:32:23.535Z,25.20
2023-09-18T00:34:50.050Z,25.21
2023-09-18T00:37:17.822Z,25.20
2023-09-18T00:39:45.314Z,25.22
2023-09-18T00:42:14.986Z,25.24
2023-09-18T00:44:42.223Z,25.24
2023-09-18T00:47:09.777Z,25.24
2023-09-18T00:49:37.521Z,25.23
2023-09-18T00:52:04.911Z,25.24
2023-09-18T00:54:32.470Z,25.25
2023-09-18T00:56:59.290Z,25.26
2023-09-18T00:59:26.053Z,25.25
2023-09-18T01:01:53.604Z,25.23
2023-09-18T01:04:20.972Z,25.22
2023-09-18T01:06:48.301Z,25.21
2023-09-18T01:09:16.150Z,25.22
2023-09-18T01:11:48.820Z,25.20
2023-09-18T01:14:15.230Z,25.19
2023-09-18T01:17:11.547Z,25.16
2023-09-18T01:19:38.980Z,25.15
2023-09-18T01:22:06.458Z,25.10
2023-09-18T01:24:33.949Z,25.01
2023-09-18T01:27:00.393Z,25.00
2023-09-18T01:29:26.883Z,25.03
2023-09-18T01:31:53.528Z,25.08
2023-09-18T01:34:21.594Z,25.09
2023-09-18T01:36:48.429Z,25.13
2023-09-18T01:39:16.034Z,25.13
2023-09-18T01:41:42.482Z,25.15
2023-09-18T01:44:09.004Z,25.13
2023-09-18T01:46:38.732Z,25.14
2023-09-18T01:49:05.219Z,25.14
2023-09-18T01:51:31.592Z,25.15
2023-09-18T01:53:58.082Z,25.13
2023-09-18T01:56:25.217Z,25.10
2023-09-18T01:58:51.924Z,25.06
2023-09-18T02:01:19.027Z,25.05
2023-09-18T02:04:13.212Z,25.06
2023-09-18T02:06:33.544Z,25.01
2023-09-18T02:09:01.725Z,25.00
2023-09-18T02:11:28.779Z,25.02
2023-09-18T02:13:55.285Z,25.04
2023-09-18T02:16:25.235Z,25.06
2023-09-18T02:18:51.978Z,25.08
2023-09-18T02:21:22.419Z,25.07
2023-09-18T02:23:52.366Z,25.07
2023-09-18T02:26:19.558Z,25.05
2023-09-18T02:28:46.004Z,25.03
2023-09-18T02:31:12.596Z,25.04
2023-09-18T02:33:39.266Z,25.07
2023-09-18T02:36:05.706Z,25.03
2023-09-18T02:38:32.180Z,25.02
2023-09-18T02:40:58.601Z,25.04
2023-09-18T02:43:25.199Z,24.92
2023-09-18T02:45:51.859Z,24.81
2023-09-18T02:48:18.927Z,24.82
2023-09-18T02:50:45.678Z,24.88
2023-09-18T02:53:20.357Z,24.83
2023-09-18T02:55:48.216Z,24.76
2023-09-18T02:58:14.689Z,24.66
2023-09-18T03:00:46.958Z,24.62
2023-09-18T03:03:13.996Z,24.50
2023-09-18T03:05:41.316Z,24.48
2023-09-18T03:08:08.576Z,24.52
2023-09-18T03:10:35.667Z,24.54
2023-09-18T03:13:02.976Z,24.49
2023-09-18T03:15:29.643Z,24.48
2023-09-18T03:17:57.113Z,24.49
2023-09-18T03:20:24.851Z,24.56
2023-09-18T03:22:59.294Z,24.56
2023-09-18T03:25:26.317Z,24.49
2023-09-18T03:27:53.512Z,24.45
2023-09-18T03:30:20.514Z,24.35
2023-09-18T03:32:47.108Z,24.25
2023-09-18T03:35:19.320Z,24.25
2023-09-18T03:37:49.336Z,24.31
2023-09-18T03:40:16.513Z,24.35
2023-09-18T03:42:43.110Z,24.35
2023-09-18T03:45:10.373Z,24.36
2023-09-18T03:47:37.145Z,24.36
2023-09-18T03:50:04.229Z,24.38
2023-09-18T03:52:30.682Z,24.35
2023-09-18T03:54:57.374Z,24.29
2023-09-18T03:57:23.812Z,24.21
2023-09-18T03:59:50.170Z,24.14
2023-09-18T04:02:16.606Z,24.05
2023-09-18T04:04:43.066Z,24.04
2023-09-18T04:07:09.824Z,24.05
2023-09-18T04:09:37.195Z,24.03
2023-09-18T04:12:05.514Z,23.99
2023-09-18T04:14:32.030Z,24.00
2023-09-18T04:16:58.522Z,23.94
2023-09-18T04:19:24.911Z,23.91
2023-09-18T04:21:51.274Z,23.92
2023-09-18T04:24:18.109Z,23.93
2023-09-18T04:26:44.603Z,23.98
2023-09-18T04:29:11.155Z,24.06
2023-09-18T04:31:38.937Z,24.18
2023-09-18T04:34:05.822Z,24.28
2023-09-18T04:36:34.779Z,24.30
2023-09-18T04:39:01.744Z,24.26
2023-09-18T04:41:28.519Z,24.26
2023-09-18T04:43:55.039Z,24.31
2023-09-18T04:46:21.480Z,24.33
2023-09-18T04:48:48.453Z,24.38
2023-09-18T04:51:14.832Z,24.46
2023-09-18T04:53:42.227Z,24.49
2023-09-18T04:56:09.013Z,24.48
2023-09-18T04:58:38.321Z,24.43
2023-09-18T05:01:08.232Z,24.43
2023-09-18T05:03:35.484Z,24.48
2023-09-18T05:06:02.757Z,24.53
2023-09-18T05:08:29.554Z,24.53
2023-09-18T05:10:56.662Z,24.56
2023-09-18T05:13:23.165Z,24.58
2023-09-18T05:15:49.582Z,24.58
2023-09-18T05:18:16.069Z,24.59
2023-09-18T05:20:42.547Z,24.59
2023-09-18T05:23:09.412Z,24.56
2023-09-18T05:25:39.265Z,24.46
2023-09-18T05:28:06.779Z,24.32
2023-09-18T05:30:35.444Z,24.32
2023-09-18T05:33:06.795Z,24.31
2023-09-18T05:35:34.215Z,24.32
2023-09-18T05:38:01.265Z,24.30
2023-09-18T05:40:30.687Z,24.20
2023-09-18T05:42:57.474Z,24.16
2023-09-18T05:45:24.395Z,24.18
2023-09-18T05:47:51.671Z,24.19
2023-09-18T05:50:18.226Z,24.19
2023-09-18T05:52:45.268Z,24.20
2023-09-18T05:55:11.847Z,24.25
2023-09-18T05:57:38.380Z,24.32
2023-09-18T06:00:06.129Z,24.34
2023-09-18T06:02:32.693Z,24.35
2023-09-18T06:05:01.262Z,24.36
2023-09-18T06:07:28.242Z,24.38
2023-09-18T06:09:54.759Z,24.39
2023-09-18T06:12:22.023Z,24.40
2023-09-18T06:14:49.179Z,24.42
2023-09-18T06:17:16.306Z,24.41
2023-09-18T06:19:43.212Z,24.43
2023-09-18T06:22:09.666Z,24.46
2023-09-18T06:24:36.462Z,24.46
2023-09-18T06:27:05.289Z,24.49
2023-09-18T06:29:32.447Z,24.48
2023-09-18T06:31:59.186Z,24.50
2023-09-18T06:34:25.943Z,24.50
2023-09-18T06:36:52.388Z,24.51
2023-09-18T06:39:18.797Z,24.52
2023-09-18T06:41:45.411Z,24.52
2023-09-18T06:44:11.893Z,24.53
2023-09-18T06:46:38.428Z,24.56
2023-09-18T06:49:04.922Z,24.57
2023-09-18T06:54:03.852Z,24.57
2023-09-18T06:56:30.600Z,24.58
2023-09-18T06:58:57.074Z,24.61
2023-09-18T07:01:25.608Z,24.65
2023-09-18T07:03:52.230Z,24.69
2023-09-18T07:06:21.906Z,24.72
2023-09-18T07:08:50.958Z,24.74
2023-09-18T07:11:18.340Z,24.76
2023-09-18T07:13:44.988Z,24.76
2023-09-18T07:16:11.896Z,24.76
2023-09-18T07:18:38.736Z,24.76
2023-09-18T07:21:05.246Z,24.79
2023-09-18T07:23:31.810Z,24.81
2023-09-18T07:26:01.270Z,24.84
2023-09-18T07:28:27.974Z,24.83
2023-09-18T07:30:54.464Z,24.85
2023-09-18T07:33:21.598Z,24.90
2023-09-18T07:35:49.309Z,24.93
2023-09-18T07:38:16.274Z,24.94
2023-09-18T07:40:43.280Z,24.94
2023-09-18T07:43:09.774Z,24.96
2023-09-18T07:45:36.522Z,24.98
2023-09-18T07:48:03.624Z,25.02
2023-09-18T07:50:32.719Z,25.03
2023-09-18T07:52:59.242Z,25.05
2023-09-18T07:55:25.784Z,25.07
2023-09-18T07:57:52.986Z,25.11
2023-09-18T08:00:19.511Z,25.11
2023-09-18T08:02:47.516Z,25.12
2023-09-18T08:05:19.192Z,25.14
2023-09-18T08:07:48.215Z,25.15
2023-09-18T08:10:14.680Z,25.17
2023-09-18T08:12:41.110Z,25.17
2023-09-18T08:15:07.930Z,25.18
2023-09-18T08:17:34.463Z,25.18
2023-09-18T08:20:00.994Z,25.21
2023-09-18T08:22:28.994Z,25.25
2023-09-18T08:24:56.454Z,25.24
2023-09-18T08:27:25.462Z,25.24
2023-09-18T08:29:52.141Z,25.27
2023-09-18T08:34:48.327Z,25.31
2023-09-18T08:37:15.025Z,25.29
2023-09-18T08:39:41.673Z,25.29
2023-09-18T08:42:08.882Z,25.32
2023-09-18T08:44:39.144Z,25.35
2023-09-18T08:47:06.515Z,25.37
2023-09-18T08:49:33.983Z,25.38
2023-09-18T08:52:00.483Z,25.39
2023-09-18T08:54:27.164Z,25.41
2023-09-18T08:56:54.541Z,25.42
2023-09-18T08:59:22.809Z,25.44
2023-09-18T09:01:49.328Z,25.45
2023-09-18T09:04:16.096Z,25.49
2023-09-18T09:06:42.619Z,25.49
2023-09-18T09:09:09.330Z,25.49
2023-09-18T09:11:38.748Z,25.53
2023-09-18T09:14:20.224Z,25.53
2023-09-18T09:16:50.812Z,25.54
2023-09-18T09:19:18.538Z,25.55
2023-09-18T09:21:46.076Z,25.57
2023-09-18T09:24:15.918Z,25.56
2023-09-18T09:26:42.643Z,25.60
2023-09-18T09:29:35.645Z,25.61
2023-09-18T09:32:14.849Z,25.62
2023-09-18T09:34:42.527Z,25.63
2023-09-18T09:37:09.282Z,25.65
2023-09-18T09:39:35.858Z,25.67
2023-09-18T09:42:05.238Z,25.70
2023-09-18T09:44:34.915Z,25.72
2023-09-18T09:47:01.441Z,25.74
2023-09-18T09:49:34.467Z,25.75
2023-09-18T09:52:00.918Z,25.76
2023-09-18T09:54:40.546Z,25.73
2023-09-18T09:57:07.025Z,25.73
2023-09-18T09:59:36.490Z,25.72
2023-09-18T10:02:04.415Z,25.75
2023-09-18T10:04:33.255Z,25.76
2023-09-18T10:07:08.379Z,25.78
2023-09-18T10:09:40.954Z,25.79
2023-09-18T10:12:11.292Z,25.80
2023-09-18T10:14:55.495Z,25.83
2023-09-18T10:17:25.719Z,25.83
2023-09-18T10:20:01.967Z,25.82
2023-09-18T10:22:28.429Z,25.82
2023-09-18T10:25:01.392Z,25.82
2023-09-18T10:27:29.752Z,25.81
2023-09-18T10:29:57.303Z,25.81
2023-09-18T10:32:24.945Z,25.83
2023-09-18T10:34:51.700Z,25.82
2023-09-18T10:37:18.893Z,25.82
2023-09-18T10:39:49.682Z,25.81
2023-09-18T10:42:18.150Z,25.82
2023-09-18T10:44:44.728Z,25.79
2023-09-18T10:47:12.480Z,25.81
2023-09-18T10:49:39.680Z,25.82
2023-09-18T10:52:06.642Z,25.86
2023-09-18T10:54:33.188Z,25.88
2023-09-18T10:56:59.957Z,25.88
2023-09-18T10:59:28.803Z,25.88
2023-09-18T11:01:55.354Z,25.88
2023-09-18T11:04:22.742Z,25.89
2023-09-18T11:06:55.239Z,25.88
2023-09-18T11:09:23.197Z,25.89
2023-09-18T11:12:04.678Z,25.92
2023-09-18T11:14:44.699Z,25.93
2023-09-18T11:17:29.154Z,25.92
2023-09-18T11:20:13.315Z,25.92
2023-09-18T11:22:41.088Z,25.92
2023-09-18T11:25:26.599Z,25.89
2023-09-18T11:27:59.101Z,25.88
2023-09-18T11:30:26.124Z,25.89
2023-09-18T11:32:52.600Z,25.88
2023-09-18T11:35:19.878Z,25.87
2023-09-18T11:37:46.982Z,25.85
2023-09-18T11:40:35.227Z,25.88
2023-09-18T11:43:26.664Z,25.88
2023-09-18T11:45:55.133Z,25.90
2023-09-18T11:48:22.288Z,25.88
2023-09-18T11:50:52.217Z,25.85
2023-09-18T11:53:22.417Z,25.85
2023-09-18T11:55:49.462Z,25.85
2023-09-18T11:58:16.195Z,25.86
2023-09-18T12:00:48.851Z,25.83
2023-09-18T12:03:19.114Z,25.85
2023-09-18T12:05:45.905Z,25.84
2023-09-18T12:08:13.163Z,25.84
2023-09-18T12:10:39.926Z,25.82
2023-09-18T12:13:09.668Z,25.81
2023-09-18T12:15:36.392Z,25.80
2023-09-18T12:18:07.234Z,25.79
2023-09-18T12:20:35.355Z,25.78
2023-09-18T12:23:03.908Z,25.79
2023-09-18T12:25:30.350Z,25.79
2023-09-18T12:27:57.447Z,25.78
2023-09-18T12:30:24.540Z,25.77
2023-09-18T12:32:52.028Z,25.79
2023-09-18T12:35:19.991Z,25.78
2023-09-18T12:37:46.648Z,25.78
2023-09-18T12:40:23.222Z,25.77
2023-09-18T12:42:50.265Z,25.77
2023-09-18T12:45:16.866Z,25.76
2023-09-18T12:47:44.796Z,25.75
2023-09-18T12:50:13.855Z,25.74
2023-09-18T12:52:40.558Z,25.74
2023-09-18T12:55:07.416Z,25.73
2023-09-18T12:57:34.285Z,25.73
2023-09-18T13:00:04.047Z,25.73
2023-09-18T13:02:30.664Z,25.73
2023-09-18T13:04:57.694Z,25.72
2023-09-18T13:07:25.090Z,25.71
2023-09-18T13:10:01.597Z,25.72
2023-09-18T13:12:46.757Z,25.72
2023-09-18T13:15:16.149Z,25.71
2023-09-18T13:17:46.836Z,25.70
2023-09-18T13:20:13.918Z,25.69
2023-09-18T13:22:40.851Z,25.70
2023-09-18T13:25:08.572Z,25.71
2023-09-18T13:27:35.329Z,25.72
2023-09-18T13:30:07.955Z,25.72
2023-09-18T13:32:37.685Z,25.72
2023-09-18T13:35:07.008Z,25.71
2023-09-18T13:37:34.163Z,25.69
2023-09-18T13:40:02.387Z,25.71
2023-09-18T13:42:31.180Z,25.69
2023-09-18T13:44:58.273Z,25.70
2023-09-18T13:47:24.955Z,25.69
2023-09-18T13:49:52.500Z,25.69
2023-09-18T13:52:19.044Z,25.69
2023-09-18T13:54:51.984Z,25.69
2023-09-18T13:57:21.702Z,25.68
2023-09-18T13:59:49.686Z,25.68
2023-09-18T14:02:16.787Z,25.68
2023-09-18T14:04:43.761Z,25.68
2023-09-18T14:07:11.064Z,25.69
2023-09-18T14:09:37.693Z,25.68
2023-09-18T14:12:04.234Z,25.70
2023-09-18T14:14:30.835Z,25.69
2023-09-18T14:16:58.562Z,25.69
2023-09-18T14:19:25.261Z,25.68
2023-09-18T14:21:51.787Z,25.68
2023-09-18T14:24:23.502Z,25.70
2023-09-18T14:26:50.240Z,25.70
2023-09-18T14:29:16.820Z,25.69
2023-09-18T14:31:43.646Z,25.70
2023-09-18T14:34:10.562Z,25.69
2023-09-18T14:36:38.845Z,25.70
2023-09-18T14:39:05.548Z,25.72
2023-09-18T14:41:32.340Z,25.71
2023-09-18T14:43:59.854Z,25.73
2023-09-18T14:46:26.380Z,25.73
2023-09-18T14:48:52.837Z,25.72
2023-09-18T14:51:19.459Z,25.71
2023-09-18T14:53:45.991Z,25.71
2023-09-18T14:56:12.705Z,25.69
2023-09-18T14:58:39.110Z,25.69
2023-09-18T15:01:05.558Z,25.70
2023-09-18T15:03:32.177Z,25.70
2023-09-18T15:05:58.781Z,25.70
2023-09-18T15:08:26.684Z,25.69
2023-09-18T15:10:53.327Z,25.69
2023-09-18T15:13:19.776Z,25.69
2023-09-18T15:15:47.005Z,25.71
2023-09-18T15:18:13.572Z,25.70
2023-09-18T15:20:42.087Z,25.70
2023-09-18T15:23:08.989Z,25.69
2023-09-18T15:25:39.100Z,25.68
2023-09-18T15:28:06.705Z,25.69
2023-09-18T15:30:33.483Z,25.68
2023-09-18T15:33:00.044Z,25.68
2023-09-18T15:35:27.219Z,25.69
2023-09-18T15:37:54.771Z,25.69
2023-09-18T15:40:22.081Z,25.70
2023-09-18T15:42:50.612Z,25.69
2023-09-18T15:45:17.044Z,25.69
2023-09-18T15:47:43.668Z,25.68
2023-09-18T15:50:11.444Z,25.69
2023-09-18T15:52:38.440Z,25.68
2023-09-18T15:55:06.500Z,25.68
2023-09-18T15:57:34.372Z,25.68
2023-09-18T16:00:05.159Z,25.68
2023-09-18T16:02:34.704Z,25.71
2023-09-18T16:05:01.699Z,25.69
2023-09-18T16:07:28.729Z,25.69
2023-09-18T16:09:56.119Z,25.70
2023-09-18T16:12:22.865Z,25.70
2023-09-18T16:14:50.001Z,25.69
2023-09-18T16:17:17.081Z,25.69
2023-09-18T16:19:46.683Z,25.69
2023-09-18T16:22:13.243Z,25.69
2023-09-18T16:24:39.696Z,25.71
2023-09-18T16:27:06.693Z,25.70
2023-09-18T16:29:35.895Z,25.70
2023-09-18T16:32:02.362Z,25.70
2023-09-18T16:34:28.758Z,25.72
2023-09-18T16:36:55.486Z,25.72
2023-09-18T16:39:24.581Z,25.69
2023-09-18T16:41:51.048Z,25.71
2023-09-18T16:44:17.596Z,25.71
2023-09-18T16:46:44.092Z,25.69
2023-09-18T16:49:12.473Z,25.70
2023-09-18T16:51:39.291Z,25.71
2023-09-18T16:54:07.077Z,25.69
2023-09-18T16:56:34.928Z,25.71
2023-09-18T16:59:02.276Z,25.69
2023-09-18T17:01:28.979Z,25.69
2023-09-18T17:03:55.699Z,25.68
2023-09-18T17:06:22.768Z,25.69
2023-09-18T17:08:52.525Z,25.71
2023-09-18T17:11:19.069Z,25.71
2023-09-18T17:13:45.800Z,25.71
2023-09-18T17:16:14.608Z,25.70
2023-09-18T17:18:42.710Z,25.69
2023-09-18T17:21:09.305Z,25.71
2023-09-18T17:23:36.593Z,25.71
2023-09-18T17:26:06.295Z,25.71
2023-09-18T17:28:33.872Z,25.71
2023-09-18T17:31:00.638Z,25.72
2023-09-18T17:33:27.905Z,25.71
2023-09-18T17:35:54.468Z,25.70
2023-09-18T17:38:20.937Z,25.70
2023-09-18T17:40:47.390Z,25.71
2023-09-18T17:43:13.995Z,25.71
2023-09-18T17:45:40.523Z,25.69
2023-09-18T17:48:09.226Z,25.72
2023-09-18T17:50:35.829Z,25.72
2023-09-18T17:53:02.815Z,25.72
2023-09-18T17:55:29.254Z,25.71
2023-09-18T18:00:24.998Z,25.73
2023-09-18T18:02:51.694Z,25.71
2023-09-18T18:05:18.566Z,25.72
2023-09-18T18:07:45.330Z,25.72
2023-09-18T18:10:12.185Z,25.71
2023-09-18T18:12:41.404Z,25.72
2023-09-18T18:15:11.053Z,25.72
2023-09-18T18:17:37.610Z,25.72
2023-09-18T18:20:06.743Z,25.72
2023-09-18T18:22:33.446Z,25.72
2023-09-18T18:24:59.916Z,25.72
2023-09-18T18:27:26.597Z,25.70
2023-09-18T18:29:58.129Z,25.69
2023-09-18T18:32:25.248Z,25.68
2023-09-18T18:34:51.722Z,25.66
2023-09-18T18:37:18.303Z,25.66
2023-09-18T18:39:44.712Z,25.69
2023-09-18T18:42:11.704Z,25.69
2023-09-18T18:44:38.169Z,25.68
2023-09-18T18:47:04.702Z,25.68
2023-09-18T18:49:32.739Z,25.68
2023-09-18T18:51:59.206Z,25.68
2023-09-18T18:54:26.297Z,25.68
2023-09-18T18:56:53.348Z,25.68
2023-09-18T18:59:19.848Z,25.68
2023-09-18T19:01:55.302Z,25.66
2023-09-18T19:04:22.293Z,25.67
2023-09-18T19:06:49.044Z,25.66
2023-09-18T19:09:15.457Z,25.65
2023-09-18T19:11:42.648Z,25.62
2023-09-18T19:14:09.176Z,25.62
2023-09-18T19:16:36.581Z,25.62
2023-09-18T19:19:03.070Z,25.63
2023-09-18T19:21:29.899Z,25.63
2023-09-18T19:23:56.389Z,25.64
2023-09-18T19:26:23.022Z,25.63
2023-09-18T19:28:49.532Z,25.60
2023-09-18T19:31:22.504Z,25.62
2023-09-18T19:33:49.116Z,25.63
2023-09-18T19:36:17.796Z,25.61
2023-09-18T19:38:44.544Z,25.62
2023-09-18T19:41:12.454Z,25.61
2023-09-18T19:43:39.045Z,25.60
2023-09-18T19:46:05.717Z,25.59
2023-09-18T19:48:32.450Z,25.60
2023-09-18T19:51:02.477Z,25.60
2023-09-18T19:53:29.417Z,25.58
2023-09-18T19:55:55.972Z,25.55
2023-09-18T19:58:23.018Z,25.55
2023-09-18T20:00:49.801Z,25.56
2023-09-18T20:03:16.425Z,25.56
2023-09-18T20:05:43.101Z,25.56
2023-09-18T20:08:11.225Z,25.55
2023-09-18T20:10:37.836Z,25.55
2023-09-18T20:13:04.769Z,25.54
2023-09-18T20:15:32.575Z,25.56
2023-09-18T20:17:59.569Z,25.56
2023-09-18T20:20:27.584Z,25.54
2023-09-18T20:22:54.052Z,25.53
2023-09-18T20:25:20.824Z,25.53
2023-09-18T20:27:47.369Z,25.53
2023-09-18T20:30:17.279Z,25.52
2023-09-18T20:32:45.125Z,25.51
2023-09-18T20:35:13.272Z,25.51
2023-09-18T20:37:39.678Z,25.50
2023-09-18T20:40:08.238Z,25.50
2023-09-18T20:42:34.859Z,25.49
2023-09-18T20:45:01.448Z,25.48
2023-09-18T20:47:29.369Z,25.49
2023-09-18T20:49:56.999Z,25.49
2023-09-18T20:52:24.058Z,25.49
2023-09-18T20:54:51.159Z,25.50
2023-09-18T20:57:17.733Z,25.49
2023-09-18T20:59:45.546Z,25.46
2023-09-18T21:02:15.078Z,25.44
2023-09-18T21:04:43.238Z,25.46
2023-09-18T21:07:09.925Z,25.43
2023-09-18T21:09:37.150Z,25.45
2023-09-18T21:12:04.445Z,25.43
2023-09-18T21:14:32.112Z,25.42
2023-09-18T21:16:58.937Z,25.42
2023-09-18T21:19:25.480Z,25.42
2023-09-18T21:21:52.478Z,25.41
2023-09-18T21:24:18.956Z,25.41
2023-09-18T21:26:45.973Z,25.42
2023-09-18T21:29:12.699Z,25.42
2023-09-18T21:31:40.024Z,25.42
2023-09-18T21:34:06.647Z,25.40
2023-09-18T21:36:35.260Z,25.39
2023-09-18T21:39:01.825Z,25.40
2023-09-18T21:41:28.555Z,25.39
2023-09-18T21:43:55.315Z,25.37
2023-09-18T21:46:23.416Z,25.34
2023-09-18T21:48:50.349Z,25.35
2023-09-18T21:51:19.699Z,25.34
2023-09-18T21:53:46.548Z,25.30
2023-09-18T21:56:13.310Z,25.28
2023-09-18T21:58:39.904Z,25.25
2023-09-18T22:01:07.581Z,25.27
2023-09-18T22:03:38.670Z,25.30
2023-09-18T22:06:06.227Z,25.30
2023-09-18T22:08:33.854Z,25.31
2023-09-18T22:11:00.656Z,25.30
2023-09-18T22:13:28.809Z,25.27
2023-09-18T22:15:55.558Z,25.26
2023-09-18T22:18:22.237Z,25.26
2023-09-18T22:20:49.066Z,25.26
2023-09-18T22:23:15.560Z,25.24
2023-09-18T22:25:42.367Z,25.20
2023-09-18T22:28:10.958Z,25.21
2023-09-18T22:30:40.511Z,25.20
2023-09-18T22:33:12.285Z,25.24
2023-09-18T22:35:39.333Z,25.26
2023-09-18T22:38:11.373Z,25.26
2023-09-18T22:40:37.931Z,25.20
2023-09-18T22:43:23.396Z,25.19
2023-09-18T22:46:09.396Z,25.20
2023-09-18T22:48:54.532Z,25.14
2023-09-18T22:51:41.072Z,25.13
2023-09-18T22:54:09.324Z,25.12
2023-09-18T22:56:36.533Z,25.13
2023-09-18T22:59:03.047Z,25.14
2023-09-18T23:01:31.481Z,25.14
2023-09-18T23:03:59.870Z,25.09
2023-09-18T23:06:28.018Z,25.12
2023-09-18T23:08:54.900Z,25.12
2023-09-18T23:11:21.460Z,25.12
2023-09-18T23:13:51.482Z,25.07
2023-09-18T23:16:19.434Z,25.08
2023-09-18T23:18:45.933Z,25.10
2023-09-18T23:21:12.631Z,25.07
2023-09-18T23:23:39.491Z,25.07
2023-09-18T23:26:06.457Z,25.11
2023-09-18T23:28:33.535Z,25.12
2023-09-18T23:31:00.014Z,25.13
2023-09-18T23:33:29.008Z,25.13
2023-09-18T23:35:57.386Z,25.06
2023-09-18T23:38:27.825Z,25.06
2023-09-18T23:40:55.223Z,25.10
2023-09-18T23:43:22.632Z,25.11
2023-09-18T23:45:50.092Z,25.08
2023-09-18T23:48:20.539Z,25.04
2023-09-18T23:50:51.163Z,25.08
2023-09-18T23:53:26.025Z,25.12
2023-09-18T23:55:53.697Z,25.09
2023-09-18T23:58:23.868Z,25.05
